createdAt,value
2023-04-03T00:00:18.258Z,98581.25
2023-04-03T00:05:19.847Z,98583.28
2023-04-03T00:10:21.485Z,98578.59
2023-04-03T00:15:23.092Z,98581.56
2023-04-03T00:20:24.769Z,98590.06
2023-04-03T00:25:26.436Z,98585.63
2023-04-03T00:30:28.213Z,98588.16
2023-04-03T00:35:30.322Z,98596.16
2023-04-03T00:40:37.391Z,98594.81
2023-04-03T00:45:42.333Z,98593.25
2023-04-03T00:50:45.484Z,98594.50
2023-04-03T00:55:48.481Z,98593.13
2023-04-03T01:00:58.580Z,98594.38
2023-04-03T01:06:00.745Z,98603.25
2023-04-03T01:11:02.439Z,98601.22
2023-04-03T01:16:06.422Z,98603.97
2023-04-03T01:21:36.921Z,98600.56
2023-04-03T01:26:38.982Z,98608.56
2023-04-03T01:31:55.294Z,98615.75
2023-04-03T01:36:57.834Z,98612.25
2023-04-03T01:42:00.390Z,98622.75
2023-04-03T01:47:02.225Z,98626.59
2023-04-03T01:52:04.140Z,98612.75
2023-04-03T01:57:06.002Z,98614.22
2023-04-03T02:02:08.110Z,98615.81
2023-04-03T02:07:09.761Z,98617.56
2023-04-03T02:12:11.433Z,98613.44
2023-04-03T02:17:13.056Z,98613.44
2023-04-03T02:22:14.895Z,98618.75
2023-04-03T02:27:16.975Z,98617.19
2023-04-03T02:32:18.626Z,98612.63
2023-04-03T02:37:20.249Z,98614.59
2023-04-03T02:42:21.905Z,98613.63
2023-04-03T02:47:23.584Z,98614.25
2023-04-03T02:52:25.424Z,98614.47
2023-04-03T02:57:27.132Z,98625.84
2023-04-03T03:02:28.880Z,98625.59
2023-04-03T03:07:30.540Z,98628.63
2023-04-03T03:12:32.748Z,98629.88
2023-04-03T03:17:36.974Z,98622.69
2023-04-03T03:22:38.661Z,98636.19
2023-04-03T03:27:40.836Z,98636.75
2023-04-03T03:32:42.558Z,98630.28
2023-04-03T03:37:44.209Z,98633.81
2023-04-03T03:42:45.841Z,98629.28
2023-04-03T03:47:47.483Z,98631.13
2023-04-03T03:52:49.107Z,98618.63
2023-04-03T03:57:50.822Z,98624.13
2023-04-03T04:02:52.478Z,98626.28
2023-04-03T04:07:54.213Z,98626.28
2023-04-03T04:12:57.344Z,98632.66
2023-04-03T04:18:00.378Z,98640.28
2023-04-03T04:23:02.101Z,98638.09
2023-04-03T04:28:03.749Z,98638.31
2023-04-03T04:33:05.963Z,98643.31
2023-04-03T04:38:09.716Z,98642.25
2023-04-03T04:43:15.320Z,98642.03
2023-04-03T04:48:17.181Z,98645.94
2023-04-03T04:53:18.793Z,98638.97
2023-04-03T04:58:21.199Z,98645.91
2023-04-03T05:03:22.809Z,98638.91
2023-04-03T05:08:24.652Z,98645.00
2023-04-03T05:13:26.303Z,98654.88
2023-04-03T05:18:28.038Z,98651.44
2023-04-03T05:23:29.746Z,98649.66
2023-04-03T05:28:31.389Z,98658.09
2023-04-03T05:33:33.034Z,98653.16
2023-04-03T05:38:34.765Z,98653.41
2023-04-03T05:43:38.808Z,98665.38
2023-04-03T05:48:40.919Z,98666.59
2023-04-03T05:53:44.260Z,98654.22
2023-04-03T05:58:46.010Z,98653.78
2023-04-03T06:03:47.713Z,98657.47
2023-04-03T06:08:51.233Z,98658.78
2023-04-03T06:13:52.892Z,98667.31
2023-04-03T06:18:54.464Z,98658.56
2023-04-03T06:23:56.469Z,98659.66
2023-04-03T06:28:58.434Z,98660.00
2023-04-03T06:34:00.562Z,98663.16
2023-04-03T06:39:02.717Z,98681.16
2023-04-03T06:44:04.487Z,98672.44
2023-04-03T06:49:11.512Z,98679.28
2023-04-03T06:54:13.786Z,98672.38
2023-04-03T06:59:16.012Z,98675.88
2023-04-03T07:04:17.753Z,98682.19
2023-04-03T07:09:19.577Z,98688.88
2023-04-03T07:14:22.360Z,98688.47
2023-04-03T07:19:25.557Z,98692.56
2023-04-03T07:24:27.343Z,98700.41
2023-04-03T07:29:29.002Z,98694.63
2023-04-03T07:34:31.702Z,98698.53
2023-04-03T07:39:33.810Z,98700.19
2023-04-03T07:44:36.499Z,98710.63
2023-04-03T07:49:40.706Z,98713.91
2023-04-03T07:54:43.269Z,98713.72
2023-04-03T07:59:44.918Z,98711.63
2023-04-03T08:04:46.690Z,98711.34
2023-04-03T08:09:48.470Z,98707.56
2023-04-03T08:14:50.111Z,98708.09
2023-04-03T08:19:51.697Z,98707.22
2023-04-03T08:24:59.406Z,98705.19
2023-04-03T08:30:01.501Z,98705.66
2023-04-03T08:35:04.405Z,98704.72
2023-04-03T08:40:12.049Z,98692.69
2023-04-03T08:45:21.539Z,98707.75
2023-04-03T08:50:31.040Z,98708.28
2023-04-03T08:55:36.424Z,98711.94
2023-04-03T09:00:52.124Z,98712.34
2023-04-03T09:06:17.209Z,98721.19
2023-04-03T09:11:46.110Z,98713.25
2023-04-03T09:16:57.843Z,98712.41
2023-04-03T09:22:45.786Z,98717.72
2023-04-03T09:27:52.307Z,98723.78
2023-04-03T09:32:56.370Z,98726.72
2023-04-03T09:38:19.571Z,98714.91
2023-04-03T09:43:27.118Z,98708.09
2023-04-03T09:48:29.330Z,98707.13
2023-04-03T09:53:33.688Z,98685.53
2023-04-03T09:58:49.536Z,98682.19
2023-04-03T10:04:12.639Z,98689.16
2023-04-03T10:09:26.518Z,98692.19
2023-04-03T10:14:30.039Z,98693.13
2023-04-03T10:19:47.211Z,98698.72
2023-04-03T10:25:01.584Z,98700.28
2023-04-03T10:30:21.497Z,98697.81
2023-04-03T10:35:41.420Z,98700.53
2023-04-03T10:40:58.677Z,98691.66
2023-04-03T10:46:17.701Z,98687.84
2023-04-03T10:51:22.129Z,98682.78
2023-04-03T10:56:40.623Z,98682.06
2023-04-03T11:01:45.187Z,98669.47
2023-04-03T11:06:58.260Z,98666.25
2023-04-03T11:12:31.062Z,98668.63
2023-04-03T11:17:44.374Z,98659.69
2023-04-03T11:22:58.623Z,98663.09
2023-04-03T11:28:03.562Z,98663.16
2023-04-03T11:33:20.218Z,98662.41
2023-04-03T11:38:37.163Z,98664.50
2023-04-03T11:43:57.561Z,98659.91
2023-04-03T11:48:59.756Z,98652.19
2023-04-03T11:54:44.453Z,98638.41
2023-04-03T11:59:47.224Z,98646.66
2023-04-03T12:05:29.186Z,98643.38
2023-04-03T12:10:32.672Z,98637.53
2023-04-03T12:15:37.950Z,98631.59
2023-04-03T12:20:52.177Z,98634.53
2023-04-03T12:26:01.595Z,98641.50
2023-04-03T12:31:06.650Z,98634.34
2023-04-03T12:36:19.961Z,98621.97
2023-04-03T12:41:40.849Z,98615.03
2023-04-03T12:46:53.601Z,98611.97
2023-04-03T12:51:55.644Z,98607.13
2023-04-03T12:57:20.402Z,98603.25
2023-04-03T13:02:31.106Z,98602.06
2023-04-03T13:07:35.828Z,98598.31
2023-04-03T13:12:48.294Z,98596.91
2023-04-03T13:17:52.696Z,98591.66
2023-04-03T13:23:03.567Z,98580.22
2023-04-03T13:28:13.768Z,98584.78
2023-04-03T13:33:27.831Z,98582.94
2023-04-03T13:38:34.037Z,98583.19
2023-04-03T13:43:38.118Z,98582.94
2023-04-03T13:48:43.832Z,98572.50
2023-04-03T13:53:53.565Z,98567.84
2023-04-03T13:59:04.143Z,98555.53
2023-04-03T14:04:16.148Z,98563.47
2023-04-03T14:09:19.644Z,98559.94
2023-04-03T14:14:31.774Z,98559.56
2023-04-03T14:19:36.812Z,98549.28
2023-04-03T14:24:39.651Z,98548.50
2023-04-03T14:29:41.259Z,98540.66
2023-04-03T14:34:44.341Z,98540.22
2023-04-03T14:39:46.807Z,98536.94
2023-04-03T14:44:48.661Z,98543.09
2023-04-03T14:49:50.658Z,98538.84
2023-04-03T14:54:53.769Z,98533.69
2023-04-03T14:59:55.560Z,98545.84
2023-04-03T15:04:58.510Z,98545.38
2023-04-03T15:10:18.966Z,98534.00
2023-04-03T15:15:22.802Z,98546.25
2023-04-03T15:20:27.445Z,98545.03
2023-04-03T15:25:29.921Z,98548.16
2023-04-03T15:30:31.787Z,98546.13
2023-04-03T15:35:33.616Z,98552.88
2023-04-03T15:40:35.508Z,98553.59
2023-04-03T15:45:38.507Z,98558.50
2023-04-03T15:50:41.258Z,98570.72
2023-04-03T15:55:43.067Z,98573.03
2023-04-03T16:00:44.943Z,98579.97
2023-04-03T16:05:47.075Z,98573.97
2023-04-03T16:10:48.813Z,98578.38
2023-04-03T16:15:50.595Z,98582.88
2023-04-03T16:20:52.469Z,98580.72
2023-04-03T16:25:54.290Z,98581.66
2023-04-03T16:30:56.134Z,98589.16
2023-04-03T16:35:57.967Z,98589.72
2023-04-03T16:41:03.563Z,98606.81
2023-04-03T16:46:05.591Z,98601.44
2023-04-03T16:51:07.409Z,98612.56
2023-04-03T16:56:09.145Z,98628.03
2023-04-03T17:01:19.423Z,98629.38
2023-04-03T17:06:24.430Z,98641.97
2023-04-03T17:11:26.761Z,98643.06
2023-04-03T17:16:30.258Z,98653.59
2023-04-03T17:21:34.428Z,98663.66
2023-04-03T17:26:37.825Z,98673.72
2023-04-03T17:31:39.989Z,98686.91
2023-04-03T17:36:41.874Z,98703.75
2023-04-03T17:41:45.913Z,98708.84
2023-04-03T17:46:48.156Z,98721.38
2023-04-03T17:51:49.891Z,98734.63
2023-04-03T17:56:52.492Z,98750.22
2023-04-03T18:01:54.774Z,98754.44
2023-04-03T18:06:57.015Z,98768.19
2023-04-03T18:12:02.945Z,98767.50
2023-04-03T18:17:06.693Z,98785.56
2023-04-03T18:22:19.523Z,98787.91
2023-04-03T18:27:26.547Z,98810.72
2023-04-03T18:32:29.157Z,98814.16
2023-04-03T18:37:31.904Z,98822.69
2023-04-03T18:42:34.106Z,98840.63
2023-04-03T18:47:37.599Z,98854.25
2023-04-03T18:52:40.142Z,98859.59
2023-04-03T18:57:42.657Z,98875.22
2023-04-03T19:02:46.787Z,98877.47
2023-04-03T19:07:50.810Z,98876.75
2023-04-03T19:12:53.023Z,98891.09
2023-04-03T19:17:55.430Z,98889.00
2023-04-03T19:22:58.366Z,98886.38
2023-04-03T19:28:00.984Z,98894.41
2023-04-03T19:33:03.707Z,98887.00
2023-04-03T19:38:06.455Z,98904.16
2023-04-03T19:43:10.380Z,98900.28
2023-04-03T19:48:12.894Z,98908.16
2023-04-03T19:53:22.900Z,98918.81
2023-04-03T19:58:28.030Z,98914.38
2023-04-03T20:03:30.739Z,98920.66
2023-04-03T20:08:34.912Z,98919.00
2023-04-03T20:13:38.637Z,98917.03
2023-04-03T20:18:42.129Z,98916.03
2023-04-03T20:23:44.030Z,98906.78
2023-04-03T20:28:45.720Z,98904.38
2023-04-03T20:33:48.981Z,98909.41
2023-04-03T20:38:52.817Z,98904.16
2023-04-03T20:43:54.665Z,98898.53
2023-04-03T20:48:57.921Z,98895.19
2023-04-03T20:53:59.556Z,98896.72
2023-04-03T20:59:04.832Z,98886.38
2023-04-03T21:04:46.469Z,98888.78
2023-04-03T21:10:25.385Z,98890.13
2023-04-03T21:16:00.113Z,98876.31
2023-04-03T21:21:03.020Z,98875.34
2023-04-03T21:26:04.624Z,98879.53
2023-04-03T21:31:06.435Z,98870.81
2023-04-03T21:36:09.209Z,98871.13
2023-04-03T21:41:11.024Z,98861.00
2023-04-03T21:46:12.760Z,98855.16
2023-04-03T21:51:14.361Z,98865.06
2023-04-03T21:56:15.938Z,98857.94
2023-04-03T22:01:18.963Z,98863.38
2023-04-03T22:06:20.706Z,98861.31
2023-04-03T22:11:24.687Z,98864.97
2023-04-03T22:16:26.755Z,98858.59
2023-04-03T22:21:28.509Z,98854.84
2023-04-03T22:26:30.104Z,98854.53
2023-04-03T22:31:31.728Z,98856.41
2023-04-03T22:36:33.344Z,98849.97
2023-04-03T22:41:34.975Z,98852.19
2023-04-03T22:46:36.621Z,98845.91
2023-04-03T22:51:38.241Z,98853.38
2023-04-03T22:56:39.826Z,98842.47
2023-04-03T23:01:41.813Z,98835.38
2023-04-03T23:06:43.653Z,98841.25
2023-04-03T23:11:45.298Z,98839.22
2023-04-03T23:16:46.935Z,98835.34
2023-04-03T23:46:31.213Z,98846.31
2023-04-03T23:51:32.909Z,98852.19
2023-04-03T23:56:34.613Z,98846.19
